createdAt,value
2018-10-12T00:01:35.382Z,13.63
2018-10-12T00:06:19.378Z,15.13
2018-10-12T00:11:03.201Z,13.53
2018-10-12T00:15:47.177Z,15.23
2018-10-12T00:20:31.157Z,15.00
2018-10-12T00:25:15.910Z,17.07
2018-10-12T00:29:59.835Z,15.03
2018-10-12T00:34:43.609Z,15.40
2018-10-12T00:39:27.424Z,13.53
2018-10-12T00:44:11.241Z,16.13
2018-10-12T00:48:55.016Z,16.07
2018-10-12T00:53:38.779Z,16.10
2018-10-12T00:58:22.654Z,15.47
2018-10-12T01:03:06.419Z,15.40
2018-10-12T01:07:50.510Z,13.50
2018-10-12T01:12:35.860Z,17.63
2018-10-12T01:17:19.713Z,13.93
2018-10-12T01:22:03.542Z,13.60
2018-10-12T01:26:47.472Z,15.77
2018-10-12T01:31:31.364Z,14.13
2018-10-12T01:36:15.189Z,19.37
2018-10-12T01:40:58.924Z,13.83
2018-10-12T01:45:42.826Z,14.43
2018-10-12T01:50:27.547Z,13.80
2018-10-12T01:55:11.461Z,16.63
2018-10-12T01:59:55.425Z,16.03
2018-10-12T02:04:39.129Z,19.17
2018-10-12T02:09:23.077Z,14.83
2018-10-12T02:14:06.987Z,15.10
2018-10-12T02:18:50.771Z,15.90
2018-10-12T02:23:34.771Z,16.60
2018-10-12T02:28:18.644Z,15.13
2018-10-12T02:33:02.566Z,16.40
2018-10-12T02:37:46.419Z,15.67
2018-10-12T02:42:30.531Z,17.97
2018-10-12T02:47:14.351Z,17.10
2018-10-12T02:51:58.187Z,18.40
2018-10-12T02:56:41.947Z,17.70
2018-10-12T03:01:25.768Z,16.03
2018-10-12T03:06:09.479Z,15.10
2018-10-12T03:10:53.433Z,14.53
2018-10-12T03:15:37.279Z,19.00
2018-10-12T03:20:21.092Z,16.43
2018-10-12T03:25:04.807Z,13.37
2018-10-12T03:29:50.790Z,13.97
2018-10-12T03:34:34.687Z,17.50
2018-10-12T03:39:18.475Z,14.77
2018-10-12T03:44:02.225Z,14.57
2018-10-12T03:48:46.381Z,15.23
2018-10-12T03:53:30.159Z,16.23
2018-10-12T03:58:14.067Z,18.03
2018-10-12T04:02:58.003Z,16.03
2018-10-12T04:07:41.947Z,15.67
2018-10-12T04:12:25.801Z,16.93
2018-10-12T04:17:09.546Z,18.57
2018-10-12T04:21:53.419Z,17.33
2018-10-12T04:26:37.292Z,17.97
2018-10-12T04:31:21.307Z,16.33
2018-10-12T04:36:05.419Z,20.43
2018-10-12T04:41:00.703Z,17.40
2018-10-12T04:45:45.181Z,18.37
2018-10-12T04:50:29.151Z,16.73
2018-10-12T04:55:12.948Z,20.73
2018-10-12T04:59:56.823Z,16.07
2018-10-12T05:04:40.723Z,17.60
2018-10-12T05:09:24.646Z,16.37
2018-10-12T05:14:08.932Z,15.90
2018-10-12T05:18:52.713Z,18.57
2018-10-12T05:23:36.731Z,17.17
2018-10-12T05:28:20.619Z,18.63
2018-10-12T05:33:15.302Z,19.40
2018-10-12T05:37:59.432Z,16.63
2018-10-12T05:42:43.866Z,19.80
2018-10-12T05:47:27.557Z,16.10
2018-10-12T05:52:11.442Z,17.90
2018-10-12T05:56:55.686Z,20.03
2018-10-12T06:01:39.664Z,20.30
2018-10-12T06:06:23.465Z,17.27
2018-10-12T06:11:07.520Z,16.83
2018-10-12T06:15:51.282Z,18.37
2018-10-12T06:20:35.171Z,17.07
2018-10-12T06:25:18.908Z,17.20
2018-10-12T06:30:02.918Z,20.37
2018-10-12T06:34:46.950Z,22.27
2018-10-12T06:39:37.550Z,20.80
2018-10-12T06:44:26.830Z,19.87
2018-10-12T06:49:10.630Z,16.20
2018-10-12T06:53:54.911Z,16.20
2018-10-12T06:58:38.724Z,15.60
2018-10-12T07:03:22.964Z,16.67
2018-10-12T07:08:06.465Z,18.00
2018-10-12T07:12:50.337Z,16.80
2018-10-12T07:17:34.104Z,17.53
2018-10-12T07:22:18.231Z,15.60
2018-10-12T07:27:02.096Z,14.30
2018-10-12T07:31:46.145Z,16.00
2018-10-12T07:36:30.232Z,14.63
2018-10-12T07:41:14.568Z,16.43
2018-10-12T07:45:58.246Z,16.13
2018-10-12T07:50:42.016Z,16.73
2018-10-12T07:55:25.795Z,17.70
2018-10-12T08:00:09.748Z,15.40
2018-10-12T08:04:53.510Z,17.50
2018-10-12T08:09:37.892Z,17.33
2018-10-12T08:14:21.588Z,13.80
2018-10-12T08:19:05.362Z,17.93
2018-10-12T08:23:49.153Z,13.17
2018-10-12T08:28:32.908Z,14.10
2018-10-12T08:33:16.724Z,15.13
2018-10-12T08:38:00.559Z,13.57
2018-10-12T08:42:44.452Z,15.47
2018-10-12T08:47:28.389Z,12.70
2018-10-12T08:52:12.483Z,12.90
2018-10-12T08:56:56.403Z,12.43
2018-10-12T09:01:40.258Z,12.43
2018-10-12T09:06:24.895Z,12.30
2018-10-12T09:11:08.808Z,11.47
2018-10-12T09:15:52.730Z,15.83
2018-10-12T09:20:36.716Z,14.17
2018-10-12T09:25:20.540Z,12.17
2018-10-12T09:30:04.340Z,11.73
2018-10-12T09:34:48.519Z,11.70
2018-10-12T09:39:32.550Z,11.03
2018-10-12T09:44:16.680Z,12.27
2018-10-12T09:49:00.646Z,12.83
2018-10-12T09:53:44.436Z,12.50
2018-10-12T09:58:28.162Z,11.53
2018-10-12T10:03:17.334Z,11.63
2018-10-12T10:08:01.970Z,11.20
2018-10-12T10:12:45.997Z,9.97
2018-10-12T10:17:29.890Z,10.30
2018-10-12T10:22:13.970Z,11.20
2018-10-12T10:26:57.924Z,10.17
2018-10-12T10:31:41.904Z,10.43
2018-10-12T10:36:25.948Z,10.47
2018-10-12T10:41:09.628Z,11.90
2018-10-12T10:45:54.666Z,10.57
2018-10-12T10:50:38.742Z,10.10
2018-10-12T10:55:26.638Z,9.57
2018-10-12T11:00:10.821Z,9.47
2018-10-12T11:04:54.844Z,10.03
2018-10-12T11:09:38.945Z,9.80
2018-10-12T11:14:22.714Z,10.70
2018-10-12T11:19:06.608Z,13.37
2018-10-12T11:23:50.510Z,10.60
2018-10-12T11:28:35.314Z,11.67
2018-10-12T11:33:19.529Z,13.03
2018-10-12T11:38:03.558Z,11.80
2018-10-12T11:42:58.318Z,10.93
2018-10-12T11:47:42.128Z,10.80
2018-10-12T11:52:25.888Z,10.10
2018-10-12T11:57:09.850Z,9.70
2018-10-12T12:01:53.561Z,11.40
2018-10-12T12:06:37.630Z,8.97
2018-10-12T12:11:21.588Z,9.17
2018-10-12T12:16:05.275Z,9.20
2018-10-12T12:20:49.116Z,8.33
2018-10-12T12:25:32.923Z,8.20
2018-10-12T12:30:17.843Z,9.37
2018-10-12T12:35:01.833Z,9.77
2018-10-12T12:39:45.534Z,11.10
2018-10-12T12:44:30.058Z,9.27
2018-10-12T12:49:14.355Z,10.90
2018-10-12T12:53:58.830Z,10.37
2018-10-12T12:58:42.679Z,9.73
2018-10-12T13:03:26.834Z,9.80
2018-10-12T13:08:10.672Z,9.90
2018-10-12T13:12:54.461Z,9.90
2018-10-12T13:17:38.381Z,10.30
2018-10-12T13:22:22.247Z,9.97
2018-10-12T13:27:05.975Z,9.97
2018-10-12T13:31:49.780Z,10.37
2018-10-12T13:36:33.497Z,11.13
2018-10-12T13:41:17.269Z,11.90
2018-10-12T13:46:01.123Z,9.63
2018-10-12T13:50:44.843Z,14.03
2018-10-12T13:55:28.784Z,12.03
2018-10-12T14:00:12.749Z,10.10
2018-10-12T14:04:56.584Z,10.00
2018-10-12T14:09:40.434Z,9.80
2018-10-12T14:14:24.237Z,11.27
2018-10-12T14:19:08.376Z,10.33
2018-10-12T14:23:52.109Z,10.57
2018-10-12T14:28:36.133Z,11.83
2018-10-12T14:33:20.461Z,12.73
2018-10-12T14:38:04.546Z,9.93
2018-10-12T14:42:48.387Z,12.87
2018-10-12T14:47:32.651Z,10.10
2018-10-12T14:52:16.485Z,10.57
2018-10-12T14:57:00.543Z,12.13
2018-10-12T15:01:44.409Z,10.70
2018-10-12T15:06:28.481Z,10.47
2018-10-12T15:11:12.489Z,10.40
2018-10-12T15:15:56.481Z,10.50
2018-10-12T15:20:40.868Z,10.63
2018-10-12T15:25:25.535Z,11.27
2018-10-12T15:30:10.082Z,11.37
2018-10-12T15:34:54.124Z,15.30
2018-10-12T15:39:38.317Z,12.80
2018-10-12T15:44:22.345Z,14.00
2018-10-12T15:49:06.190Z,11.97
2018-10-12T15:53:50.049Z,13.37
2018-10-12T15:58:33.988Z,12.87
2018-10-12T16:03:18.081Z,12.93
2018-10-12T16:08:02.137Z,13.10
2018-10-12T16:12:46.161Z,10.87
2018-10-12T16:17:30.128Z,12.30
2018-10-12T16:22:14.892Z,16.70
2018-10-12T16:26:58.943Z,13.30
2018-10-12T16:31:42.907Z,13.37
2018-10-12T16:36:28.231Z,12.17
2018-10-12T16:41:12.387Z,12.03
2018-10-12T16:45:56.180Z,13.20
2018-10-12T16:50:40.100Z,11.47
2018-10-12T16:55:24.024Z,11.93
2018-10-12T17:00:07.893Z,11.33
2018-10-12T17:04:51.892Z,10.00
2018-10-12T17:09:36.142Z,10.30
2018-10-12T17:14:20.930Z,14.77
2018-10-12T17:19:13.641Z,11.67
2018-10-12T17:23:57.904Z,13.67
2018-10-12T17:28:42.059Z,11.87
2018-10-12T17:33:26.238Z,11.30
2018-10-12T17:38:10.086Z,9.90
2018-10-12T17:42:53.955Z,9.40
2018-10-12T17:47:38.104Z,11.90
2018-10-12T17:52:23.270Z,12.70
2018-10-12T17:57:07.513Z,12.57
2018-10-12T18:01:51.429Z,11.67
2018-10-12T18:06:35.281Z,15.03
2018-10-12T18:11:19.289Z,12.37
2018-10-12T18:16:02.978Z,11.87
2018-10-12T18:20:46.878Z,11.47
2018-10-12T18:25:30.841Z,16.33
2018-10-12T18:30:15.883Z,13.07
2018-10-12T18:35:00.009Z,12.33
2018-10-12T18:39:44.174Z,13.97
2018-10-12T18:44:28.688Z,16.47
2018-10-12T18:49:14.652Z,17.73
2018-10-12T18:53:58.926Z,14.73
2018-10-12T18:58:43.275Z,14.70
2018-10-12T19:03:27.120Z,12.47
2018-10-12T19:08:11.151Z,25.23
2018-10-12T19:12:55.529Z,29.73
2018-10-12T19:17:40.435Z,21.87
2018-10-12T19:22:24.931Z,18.63
2018-10-12T19:27:09.992Z,14.33
2018-10-12T19:31:54.053Z,13.37
2018-10-12T19:36:38.429Z,11.67
2018-10-12T19:41:23.341Z,12.23
2018-10-12T19:46:08.049Z,13.57
2018-10-12T19:50:52.415Z,11.83
2018-10-12T19:55:36.301Z,22.97
2018-10-12T20:00:21.795Z,22.37
2018-10-12T20:05:05.726Z,32.17
2018-10-12T20:09:50.071Z,28.43
2018-10-12T20:14:33.899Z,20.30
2018-10-12T20:19:19.672Z,18.73
2018-10-12T20:24:03.890Z,18.67
2018-10-12T20:28:47.995Z,18.17
2018-10-12T20:33:31.839Z,15.57
2018-10-12T20:38:15.713Z,11.90
2018-10-12T20:43:00.817Z,14.43
2018-10-12T20:47:44.761Z,14.13
2018-10-12T20:52:28.429Z,15.50
2018-10-12T20:57:12.606Z,16.33
2018-10-12T21:01:56.435Z,14.30
2018-10-12T21:06:40.259Z,14.97
2018-10-12T21:11:24.204Z,21.23
2018-10-12T21:16:08.699Z,19.97
2018-10-12T21:20:52.661Z,20.20
2018-10-12T21:25:36.505Z,21.10
2018-10-12T21:30:20.466Z,20.87
2018-10-12T21:35:04.907Z,19.33
2018-10-12T21:39:49.217Z,15.90
2018-10-12T21:44:33.066Z,13.97
2018-10-12T21:49:16.845Z,16.17
2018-10-12T21:54:00.614Z,16.57
2018-10-12T21:58:44.382Z,13.77
2018-10-12T22:03:28.249Z,12.80
2018-10-12T22:08:16.205Z,12.87
2018-10-12T22:12:59.961Z,17.17
2018-10-12T22:17:43.653Z,22.70
2018-10-12T22:22:27.393Z,20.50
2018-10-12T22:27:11.162Z,15.53
2018-10-12T22:31:54.969Z,15.83
2018-10-12T22:36:39.624Z,13.27
2018-10-12T22:41:23.430Z,16.40
2018-10-12T22:46:07.501Z,12.17
2018-10-12T22:50:51.594Z,15.30
2018-10-12T22:55:35.405Z,12.97
2018-10-12T23:00:19.969Z,13.10
2018-10-12T23:05:03.671Z,14.60
2018-10-12T23:09:47.441Z,12.63
2018-10-12T23:14:31.252Z,13.17
2018-10-12T23:19:15.681Z,14.67
2018-10-12T23:23:59.665Z,13.57
2018-10-12T23:28:43.588Z,17.10
2018-10-12T23:33:38.367Z,13.67
2018-10-12T23:38:22.088Z,16.97
2018-10-12T23:43:05.902Z,13.97
2018-10-12T23:47:49.699Z,17.23
2018-10-12T23:52:33.471Z,15.97
2018-10-12T23:57:17.941Z,16.27
